sensor_id;sensor_type;location;lat;lon;timestamp;temperature;humidity
18948;DHT22;9607;51.600;7.558;2023-04-01T00:02:00;10.30;99.90
18948;DHT22;9607;51.600;7.558;2023-04-01T00:04:27;10.30;99.90
18948;DHT22;9607;51.600;7.558;2023-04-01T00:06:54;10.20;99.90
18948;DHT22;9607;51.600;7.558;2023-04-01T00:09:21;10.20;99.90
18948;DHT22;9607;51.600;7.558;2023-04-01T00:11:48;10.20;99.90
18948;DHT22;9607;51.600;7.558;2023-04-01T00:14:14;10.10;99.90
18948;DHT22;9607;51.600;7.558;2023-04-01T00:16:41;10.10;99.90
18948;DHT22;9607;51.600;7.558;2023-04-01T00:19:10;10.10;99.90
18948;DHT22;9607;51.600;7.558;2023-04-01T00:21:37;10.10;99.90
18948;DHT22;9607;51.600;7.558;2023-04-01T00:24:04;10.00;99.90
18948;DHT22;9607;51.600;7.558;2023-04-01T00:26:31;10.00;99.90
18948;DHT22;9607;51.600;7.558;2023-04-01T00:28:58;10.00;99.90
18948;DHT22;9607;51.600;7.558;2023-04-01T00:31:26;10.00;99.90
18948;DHT22;9607;51.600;7.558;2023-04-01T00:33:52;10.00;99.90
18948;DHT22;9607;51.600;7.558;2023-04-01T00:36:21;10.00;99.90
18948;DHT22;9607;51.600;7.558;2023-04-01T00:38:49;10.00;99.90
18948;DHT22;9607;51.600;7.558;2023-04-01T00:41:20;10.00;99.90
18948;DHT22;9607;51.600;7.558;2023-04-01T00:43:49;9.90;99.90
18948;DHT22;9607;51.600;7.558;2023-04-01T00:46:16;10.00;99.90
18948;DHT22;9607;51.600;7.558;2023-04-01T00:48:46;10.00;99.90
18948;DHT22;9607;51.600;7.558;2023-04-01T00:51:16;9.90;99.90
18948;DHT22;9607;51.600;7.558;2023-04-01T00:53:49;9.90;99.90
18948;DHT22;9607;51.600;7.558;2023-04-01T00:56:19;9.90;99.90
18948;DHT22;9607;51.600;7.558;2023-04-01T00:58:51;9.90;99.90
18948;DHT22;9607;51.600;7.558;2023-04-01T01:01:20;9.90;99.90
18948;DHT22;9607;51.600;7.558;2023-04-01T01:03:46;9.90;99.90
18948;DHT22;9607;51.600;7.558;2023-04-01T01:06:23;9.90;99.90
18948;DHT22;9607;51.600;7.558;2023-04-01T01:09:10;9.90;99.90
18948;DHT22;9607;51.600;7.558;2023-04-01T01:11:42;9.90;99.90
18948;DHT22;9607;51.600;7.558;2023-04-01T01:14:25;9.90;99.90
18948;DHT22;9607;51.600;7.558;2023-04-01T01:16:56;9.90;99.90
18948;DHT22;9607;51.600;7.558;2023-04-01T01:20:13;9.90;99.90
18948;DHT22;9607;51.600;7.558;2023-04-01T01:22:54;9.90;99.90
18948;DHT22;9607;51.600;7.558;2023-04-01T01:25:42;9.90;99.90
18948;DHT22;9607;51.600;7.558;2023-04-01T01:28:24;9.90;99.90
18948;DHT22;9607;51.600;7.558;2023-04-01T01:31:00;9.90;99.90
18948;DHT22;9607;51.600;7.558;2023-04-01T01:33:38;9.90;99.90
18948;DHT22;9607;51.600;7.558;2023-04-01T01:36:09;9.90;99.90
18948;DHT22;9607;51.600;7.558;2023-04-01T01:38:38;9.90;99.90
18948;DHT22;9607;51.600;7.558;2023-04-01T01:41:06;9.90;99.90
18948;DHT22;9607;51.600;7.558;2023-04-01T01:43:37;9.80;99.90
18948;DHT22;9607;51.600;7.558;2023-04-01T01:46:08;9.80;99.90
18948;DHT22;9607;51.600;7.558;2023-04-01T01:48:36;9.80;99.90
18948;DHT22;9607;51.600;7.558;2023-04-01T01:51:06;9.80;99.90
18948;DHT22;9607;51.600;7.558;2023-04-01T01:53:34;9.80;99.90
18948;DHT22;9607;51.600;7.558;2023-04-01T01:56:00;9.80;99.90
18948;DHT22;9607;51.600;7.558;2023-04-01T01:58:29;9.80;99.90
18948;DHT22;9607;51.600;7.558;2023-04-01T02:00:59;9.80;99.90
18948;DHT22;9607;51.600;7.558;2023-04-01T02:03:29;9.80;99.90
18948;DHT22;9607;51.600;7.558;2023-04-01T02:05:59;9.80;99.90
18948;DHT22;9607;51.600;7.558;2023-04-01T02:08:30;9.70;99.90
18948;DHT22;9607;51.600;7.558;2023-04-01T02:11:01;9.80;99.90
18948;DHT22;9607;51.600;7.558;2023-04-01T02:13:32;9.70;99.90
18948;DHT22;9607;51.600;7.558;2023-04-01T02:16:04;9.70;99.90
18948;DHT22;9607;51.600;7.558;2023-04-01T02:18:34;9.70;99.90
18948;DHT22;9607;51.600;7.558;2023-04-01T02:21:02;9.70;99.90
18948;DHT22;9607;51.600;7.558;2023-04-01T02:23:32;9.70;99.90
18948;DHT22;9607;51.600;7.558;2023-04-01T02:26:00;9.70;99.90
18948;DHT22;9607;51.600;7.558;2023-04-01T02:28:28;9.60;99.90
18948;DHT22;9607;51.600;7.558;2023-04-01T02:30:55;9.60;99.90
18948;DHT22;9607;51.600;7.558;2023-04-01T02:33:24;9.60;99.90
18948;DHT22;9607;51.600;7.558;2023-04-01T02:35:51;9.60;99.90
18948;DHT22;9607;51.600;7.558;2023-04-01T02:38:18;9.60;99.90
18948;DHT22;9607;51.600;7.558;2023-04-01T02:40:48;9.60;99.90
18948;DHT22;9607;51.600;7.558;2023-04-01T02:43:16;9.60;99.90
18948;DHT22;9607;51.600;7.558;2023-04-01T02:45:44;9.60;99.90
18948;DHT22;9607;51.600;7.558;2023-04-01T02:48:12;9.60;99.90
18948;DHT22;9607;51.600;7.558;2023-04-01T02:50:39;9.60;99.90
18948;DHT22;9607;51.600;7.558;2023-04-01T02:53:06;9.60;99.90
18948;DHT22;9607;51.600;7.558;2023-04-01T02:55:33;9.60;99.90
18948;DHT22;9607;51.600;7.558;2023-04-01T02:58:01;9.60;99.90
18948;DHT22;9607;51.600;7.558;2023-04-01T03:00:29;9.60;99.90
18948;DHT22;9607;51.600;7.558;2023-04-01T03:02:56;9.60;99.90
18948;DHT22;9607;51.600;7.558;2023-04-01T03:05:23;9.60;99.90
18948;DHT22;9607;51.600;7.558;2023-04-01T03:07:50;9.70;99.90
18948;DHT22;9607;51.600;7.558;2023-04-01T03:10:17;9.60;99.90
18948;DHT22;9607;51.600;7.558;2023-04-01T03:12:44;9.60;99.90
18948;DHT22;9607;51.600;7.558;2023-04-01T03:15:13;9.60;99.90
18948;DHT22;9607;51.600;7.558;2023-04-01T03:17:40;9.60;99.90
18948;DHT22;9607;51.600;7.558;2023-04-01T03:20:09;9.60;99.90
18948;DHT22;9607;51.600;7.558;2023-04-01T03:22:36;9.60;99.90
18948;DHT22;9607;51.600;7.558;2023-04-01T03:25:05;9.60;99.90
18948;DHT22;9607;51.600;7.558;2023-04-01T03:27:33;9.60;99.90
18948;DHT22;9607;51.600;7.558;2023-04-01T03:30:00;9.60;99.90
18948;DHT22;9607;51.600;7.558;2023-04-01T03:32:28;9.60;99.90
18948;DHT22;9607;51.600;7.558;2023-04-01T03:34:54;9.50;99.90
18948;DHT22;9607;51.600;7.558;2023-04-01T03:37:22;9.50;99.90
18948;DHT22;9607;51.600;7.558;2023-04-01T03:39:49;9.50;99.90
18948;DHT22;9607;51.600;7.558;2023-04-01T03:42:16;9.50;99.90
18948;DHT22;9607;51.600;7.558;2023-04-01T03:44:43;9.50;99.90
18948;DHT22;9607;51.600;7.558;2023-04-01T03:47:10;9.40;99.90
18948;DHT22;9607;51.600;7.558;2023-04-01T03:49:38;9.50;99.90
18948;DHT22;9607;51.600;7.558;2023-04-01T03:52:08;9.40;99.90
18948;DHT22;9607;51.600;7.558;2023-04-01T03:54:36;9.40;99.90
18948;DHT22;9607;51.600;7.558;2023-04-01T03:57:03;9.40;99.90
18948;DHT22;9607;51.600;7.558;2023-04-01T03:59:30;9.40;99.90
18948;DHT22;9607;51.600;7.558;2023-04-01T04:01:56;9.40;99.90
18948;DHT22;9607;51.600;7.558;2023-04-01T04:04:23;9.40;99.90
18948;DHT22;9607;51.600;7.558;2023-04-01T04:06:53;9.40;99.90
18948;DHT22;9607;51.600;7.558;2023-04-01T04:09:19;9.40;99.90
18948;DHT22;9607;51.600;7.558;2023-04-01T04:11:47;9.40;99.90
18948;DHT22;9607;51.600;7.558;2023-04-01T04:14:13;9.40;99.90
18948;DHT22;9607;51.600;7.558;2023-04-01T04:16:40;9.40;99.90
18948;DHT22;9607;51.600;7.558;2023-04-01T04:19:07;9.40;99.90
18948;DHT22;9607;51.600;7.558;2023-04-01T04:21:34;9.50;99.90
18948;DHT22;9607;51.600;7.558;2023-04-01T04:24:03;9.50;99.90
18948;DHT22;9607;51.600;7.558;2023-04-01T04:26:30;9.50;99.90
18948;DHT22;9607;51.600;7.558;2023-04-01T04:28:57;9.50;99.90
18948;DHT22;9607;51.600;7.558;2023-04-01T04:31:25;9.50;99.90
18948;DHT22;9607;51.600;7.558;2023-04-01T04:33:52;9.50;99.90
18948;DHT22;9607;51.600;7.558;2023-04-01T04:36:20;9.50;99.90
18948;DHT22;9607;51.600;7.558;2023-04-01T04:38:47;9.50;99.90
18948;DHT22;9607;51.600;7.558;2023-04-01T04:41:16;9.50;99.90
18948;DHT22;9607;51.600;7.558;2023-04-01T04:43:49;9.50;99.90
18948;DHT22;9607;51.600;7.558;2023-04-01T04:46:16;9.50;99.90
18948;DHT22;9607;51.600;7.558;2023-04-01T04:48:43;9.50;99.90
18948;DHT22;9607;51.600;7.558;2023-04-01T04:51:13;9.50;99.90
18948;DHT22;9607;51.600;7.558;2023-04-01T04:53:41;9.50;99.90
18948;DHT22;9607;51.600;7.558;2023-04-01T04:56:08;9.50;99.90
18948;DHT22;9607;51.600;7.558;2023-04-01T04:58:36;9.50;99.90
18948;DHT22;9607;51.600;7.558;2023-04-01T05:01:08;9.50;99.90
18948;DHT22;9607;51.600;7.558;2023-04-01T05:03:36;9.50;99.90
18948;DHT22;9607;51.600;7.558;2023-04-01T05:06:04;9.50;99.90
18948;DHT22;9607;51.600;7.558;2023-04-01T05:08:31;9.50;99.90
18948;DHT22;9607;51.600;7.558;2023-04-01T05:10:58;9.50;99.90
18948;DHT22;9607;51.600;7.558;2023-04-01T05:13:25;9.50;99.90
18948;DHT22;9607;51.600;7.558;2023-04-01T05:15:53;9.50;99.90
18948;DHT22;9607;51.600;7.558;2023-04-01T05:18:20;9.50;99.90
18948;DHT22;9607;51.600;7.558;2023-04-01T05:20:48;9.50;99.90
18948;DHT22;9607;51.600;7.558;2023-04-01T05:23:15;9.50;99.90
18948;DHT22;9607;51.600;7.558;2023-04-01T05:25:42;9.50;99.90
18948;DHT22;9607;51.600;7.558;2023-04-01T05:28:10;9.60;99.90
18948;DHT22;9607;51.600;7.558;2023-04-01T05:30:39;9.60;99.90
18948;DHT22;9607;51.600;7.558;2023-04-01T05:33:08;9.50;99.90
18948;DHT22;9607;51.600;7.558;2023-04-01T05:35:35;9.60;99.90
18948;DHT22;9607;51.600;7.558;2023-04-01T05:38:02;9.60;99.90
18948;DHT22;9607;51.600;7.558;2023-04-01T05:40:30;9.60;99.90
18948;DHT22;9607;51.600;7.558;2023-04-01T05:42:57;9.70;99.90
18948;DHT22;9607;51.600;7.558;2023-04-01T05:45:23;9.70;99.90
18948;DHT22;9607;51.600;7.558;2023-04-01T05:47:50;9.70;99.90
18948;DHT22;9607;51.600;7.558;2023-04-01T05:50:18;9.70;99.90
18948;DHT22;9607;51.600;7.558;2023-04-01T05:52:45;9.80;99.90
18948;DHT22;9607;51.600;7.558;2023-04-01T05:55:12;9.80;99.90
18948;DHT22;9607;51.600;7.558;2023-04-01T05:57:39;9.80;99.90
18948;DHT22;9607;51.600;7.558;2023-04-01T06:00:07;9.80;99.90
18948;DHT22;9607;51.600;7.558;2023-04-01T06:02:33;9.80;99.90
18948;DHT22;9607;51.600;7.558;2023-04-01T06:05:03;9.90;99.90
18948;DHT22;9607;51.600;7.558;2023-04-01T06:07:39;9.90;99.90
18948;DHT22;9607;51.600;7.558;2023-04-01T06:10:12;10.00;99.90
18948;DHT22;9607;51.600;7.558;2023-04-01T06:12:45;10.00;99.90
18948;DHT22;9607;51.600;7.558;2023-04-01T06:15:24;10.00;99.90
18948;DHT22;9607;51.600;7.558;2023-04-01T06:20:50;10.10;99.90
18948;DHT22;9607;51.600;7.558;2023-04-01T06:23:34;10.20;99.90
18948;DHT22;9607;51.600;7.558;2023-04-01T06:26:12;10.20;99.90
18948;DHT22;9607;51.600;7.558;2023-04-01T06:28:49;10.30;99.90
18948;DHT22;9607;51.600;7.558;2023-04-01T06:31:36;10.40;99.90
18948;DHT22;9607;51.600;7.558;2023-04-01T06:34:23;10.40;99.90
18948;DHT22;9607;51.600;7.558;2023-04-01T06:37:11;10.50;99.90
18948;DHT22;9607;51.600;7.558;2023-04-01T06:39:57;10.50;99.90
18948;DHT22;9607;51.600;7.558;2023-04-01T06:42:34;10.60;99.90
18948;DHT22;9607;51.600;7.558;2023-04-01T06:45:12;10.60;99.90
18948;DHT22;9607;51.600;7.558;2023-04-01T06:47:53;10.60;99.90
18948;DHT22;9607;51.600;7.558;2023-04-01T06:50:28;10.60;99.90
18948;DHT22;9607;51.600;7.558;2023-04-01T06:53:02;10.60;99.90
18948;DHT22;9607;51.600;7.558;2023-04-01T06:55:38;10.70;99.90
18948;DHT22;9607;51.600;7.558;2023-04-01T06:58:13;10.70;99.90
18948;DHT22;9607;51.600;7.558;2023-04-01T07:00:44;10.80;99.90
18948;DHT22;9607;51.600;7.558;2023-04-01T07:03:18;10.90;99.90
18948;DHT22;9607;51.600;7.558;2023-04-01T07:05:47;11.00;99.90
18948;DHT22;9607;51.600;7.558;2023-04-01T07:08:18;11.00;99.90
18948;DHT22;9607;51.600;7.558;2023-04-01T07:10:52;11.10;99.90
18948;DHT22;9607;51.600;7.558;2023-04-01T07:13:23;11.20;99.90
18948;DHT22;9607;51.600;7.558;2023-04-01T07:15:58;11.30;99.90
18948;DHT22;9607;51.600;7.558;2023-04-01T07:18:32;11.30;99.90
18948;DHT22;9607;51.600;7.558;2023-04-01T07:21:01;11.30;99.90
18948;DHT22;9607;51.600;7.558;2023-04-01T07:23:31;11.20;99.90
18948;DHT22;9607;51.600;7.558;2023-04-01T07:26:03;11.20;99.90
18948;DHT22;9607;51.600;7.558;2023-04-01T07:28:31;11.20;99.90
18948;DHT22;9607;51.600;7.558;2023-04-01T07:31:07;11.10;99.90
18948;DHT22;9607;51.600;7.558;2023-04-01T07:33:44;11.10;99.90
18948;DHT22;9607;51.600;7.558;2023-04-01T07:36:24;11.20;99.90
18948;DHT22;9607;51.600;7.558;2023-04-01T07:38:59;11.20;99.90
18948;DHT22;9607;51.600;7.558;2023-04-01T07:41:39;11.20;99.90
18948;DHT22;9607;51.600;7.558;2023-04-01T07:44:17;11.20;99.90
18948;DHT22;9607;51.600;7.558;2023-04-01T07:47:10;11.20;99.90
18948;DHT22;9607;51.600;7.558;2023-04-01T07:49:46;11.20;99.90
18948;DHT22;9607;51.600;7.558;2023-04-01T07:52:23;11.20;99.90
18948;DHT22;9607;51.600;7.558;2023-04-01T07:54:55;11.30;99.90
18948;DHT22;9607;51.600;7.558;2023-04-01T07:57:33;11.30;99.90
18948;DHT22;9607;51.600;7.558;2023-04-01T08:00:07;11.30;99.90
18948;DHT22;9607;51.600;7.558;2023-04-01T08:02:46;11.30;99.90
18948;DHT22;9607;51.600;7.558;2023-04-01T08:05:21;11.30;99.90
18948;DHT22;9607;51.600;7.558;2023-04-01T08:07:58;11.30;99.90
18948;DHT22;9607;51.600;7.558;2023-04-01T08:10:36;11.30;99.90
18948;DHT22;9607;51.600;7.558;2023-04-01T08:13:14;11.20;99.90
18948;DHT22;9607;51.600;7.558;2023-04-01T08:15:48;11.30;99.90
18948;DHT22;9607;51.600;7.558;2023-04-01T08:18:27;11.30;99.90
18948;DHT22;9607;51.600;7.558;2023-04-01T08:20:58;11.30;99.90
18948;DHT22;9607;51.600;7.558;2023-04-01T08:23:27;11.30;99.90
18948;DHT22;9607;51.600;7.558;2023-04-01T08:26:00;11.40;99.90
18948;DHT22;9607;51.600;7.558;2023-04-01T08:28:34;11.40;99.90
18948;DHT22;9607;51.600;7.558;2023-04-01T08:31:05;11.40;99.90
18948;DHT22;9607;51.600;7.558;2023-04-01T08:33:35;11.50;99.90
18948;DHT22;9607;51.600;7.558;2023-04-01T08:36:06;11.50;99.90
18948;DHT22;9607;51.600;7.558;2023-04-01T08:38:39;11.50;99.90
18948;DHT22;9607;51.600;7.558;2023-04-01T08:44:20;11.60;99.90
18948;DHT22;9607;51.600;7.558;2023-04-01T08:47:24;11.70;99.90
18948;DHT22;9607;51.600;7.558;2023-04-01T08:52:46;11.70;99.90
18948;DHT22;9607;51.600;7.558;2023-04-01T08:55:36;11.70;99.90
18948;DHT22;9607;51.600;7.558;2023-04-01T08:58:27;11.70;99.90
18948;DHT22;9607;51.600;7.558;2023-04-01T09:01:05;11.70;99.90
18948;DHT22;9607;51.600;7.558;2023-04-01T09:03:48;11.70;99.90
18948;DHT22;9607;51.600;7.558;2023-04-01T09:06:37;11.70;99.90
18948;DHT22;9607;51.600;7.558;2023-04-01T09:12:19;11.40;99.90
18948;DHT22;9607;51.600;7.558;2023-04-01T09:15:12;11.30;99.90
18948;DHT22;9607;51.600;7.558;2023-04-01T09:17:57;11.30;99.90
18948;DHT22;9607;51.600;7.558;2023-04-01T09:20:47;11.20;99.90
18948;DHT22;9607;51.600;7.558;2023-04-01T09:23:33;11.30;99.90
18948;DHT22;9607;51.600;7.558;2023-04-01T09:26:25;11.30;99.90
18948;DHT22;9607;51.600;7.558;2023-04-01T09:29:05;11.30;99.90
18948;DHT22;9607;51.600;7.558;2023-04-01T09:31:46;11.20;99.90
18948;DHT22;9607;51.600;7.558;2023-04-01T09:34:34;11.20;99.90
18948;DHT22;9607;51.600;7.558;2023-04-01T09:37:19;11.10;99.90
18948;DHT22;9607;51.600;7.558;2023-04-01T09:42:43;11.10;99.90
18948;DHT22;9607;51.600;7.558;2023-04-01T09:45:20;11.10;99.90
18948;DHT22;9607;51.600;7.558;2023-04-01T09:48:00;11.10;99.90
18948;DHT22;9607;51.600;7.558;2023-04-01T09:50:35;11.20;99.90
18948;DHT22;9607;51.600;7.558;2023-04-01T09:53:15;11.20;99.90
18948;DHT22;9607;51.600;7.558;2023-04-01T09:59:26;11.20;99.90
18948;DHT22;9607;51.600;7.558;2023-04-01T10:05:26;11.20;99.90
18948;DHT22;9607;51.600;7.558;2023-04-01T10:08:23;11.10;99.90
18948;DHT22;9607;51.600;7.558;2023-04-01T10:11:19;11.10;99.90
18948;DHT22;9607;51.600;7.558;2023-04-01T10:14:04;11.20;99.90
18948;DHT22;9607;51.600;7.558;2023-04-01T10:16:58;11.30;99.90
18948;DHT22;9607;51.600;7.558;2023-04-01T10:19:55;11.20;99.90
18948;DHT22;9607;51.600;7.558;2023-04-01T10:22:56;11.20;99.90
18948;DHT22;9607;51.600;7.558;2023-04-01T10:25:55;11.20;99.90
18948;DHT22;9607;51.600;7.558;2023-04-01T10:29:03;11.20;99.90
18948;DHT22;9607;51.600;7.558;2023-04-01T10:32:19;11.30;99.90
18948;DHT22;9607;51.600;7.558;2023-04-01T10:35:20;11.40;99.90
18948;DHT22;9607;51.600;7.558;2023-04-01T10:44:42;11.60;99.90
18948;DHT22;9607;51.600;7.558;2023-04-01T10:47:48;11.80;99.90
18948;DHT22;9607;51.600;7.558;2023-04-01T10:50:40;11.80;99.90
18948;DHT22;9607;51.600;7.558;2023-04-01T10:53:37;11.80;99.90
18948;DHT22;9607;51.600;7.558;2023-04-01T10:56:36;11.80;99.90
18948;DHT22;9607;51.600;7.558;2023-04-01T11:02:57;11.90;99.90
18948;DHT22;9607;51.600;7.558;2023-04-01T11:06:05;11.80;99.90
18948;DHT22;9607;51.600;7.558;2023-04-01T11:08:58;11.80;99.90
18948;DHT22;9607;51.600;7.558;2023-04-01T11:18:03;11.70;99.90
18948;DHT22;9607;51.600;7.558;2023-04-01T11:24:33;11.60;99.90
18948;DHT22;9607;51.600;7.558;2023-04-01T11:27:11;11.50;99.90
18948;DHT22;9607;51.600;7.558;2023-04-01T11:30:04;11.50;99.90
18948;DHT22;9607;51.600;7.558;2023-04-01T11:32:46;11.50;99.90
18948;DHT22;9607;51.600;7.558;2023-04-01T11:35:59;11.50;99.90
18948;DHT22;9607;51.600;7.558;2023-04-01T11:38:58;11.70;99.90
18948;DHT22;9607;51.600;7.558;2023-04-01T11:41:35;11.90;99.90
18948;DHT22;9607;51.600;7.558;2023-04-01T11:44:21;12.00;99.90
18948;DHT22;9607;51.600;7.558;2023-04-01T11:47:07;12.00;99.90
18948;DHT22;9607;51.600;7.558;2023-04-01T11:49:44;12.00;99.90
18948;DHT22;9607;51.600;7.558;2023-04-01T11:52:25;11.90;99.90
18948;DHT22;9607;51.600;7.558;2023-04-01T11:55:15;11.80;99.90
18948;DHT22;9607;51.600;7.558;2023-04-01T11:58:08;11.70;99.90
18948;DHT22;9607;51.600;7.558;2023-04-01T12:00:54;11.60;99.90
18948;DHT22;9607;51.600;7.558;2023-04-01T12:03:41;11.70;99.90
18948;DHT22;9607;51.600;7.558;2023-04-01T12:06:15;11.80;99.90
18948;DHT22;9607;51.600;7.558;2023-04-01T12:08:49;12.00;99.90
18948;DHT22;9607;51.600;7.558;2023-04-01T12:11:23;12.10;99.90
18948;DHT22;9607;51.600;7.558;2023-04-01T12:13:57;12.20;99.90
18948;DHT22;9607;51.600;7.558;2023-04-01T12:16:45;12.30;99.90
18948;DHT22;9607;51.600;7.558;2023-04-01T12:19:23;12.20;99.90
18948;DHT22;9607;51.600;7.558;2023-04-01T12:22:05;12.10;99.90
18948;DHT22;9607;51.600;7.558;2023-04-01T12:24:46;12.10;99.90
18948;DHT22;9607;51.600;7.558;2023-04-01T12:27:35;11.90;99.90
18948;DHT22;9607;51.600;7.558;2023-04-01T12:30:29;11.90;99.90
18948;DHT22;9607;51.600;7.558;2023-04-01T12:33:27;11.80;99.90
18948;DHT22;9607;51.600;7.558;2023-04-01T12:36:02;11.70;99.90
18948;DHT22;9607;51.600;7.558;2023-04-01T12:38:42;11.60;99.90
18948;DHT22;9607;51.600;7.558;2023-04-01T12:41:17;11.60;99.90
18948;DHT22;9607;51.600;7.558;2023-04-01T12:44:17;11.50;99.90
18948;DHT22;9607;51.600;7.558;2023-04-01T12:47:12;11.50;99.90
18948;DHT22;9607;51.600;7.558;2023-04-01T12:50:09;11.40;99.90
18948;DHT22;9607;51.600;7.558;2023-04-01T12:52:55;11.30;99.90
18948;DHT22;9607;51.600;7.558;2023-04-01T12:55:36;11.30;99.90
18948;DHT22;9607;51.600;7.558;2023-04-01T12:58:36;11.30;99.90
18948;DHT22;9607;51.600;7.558;2023-04-01T13:01:19;11.30;99.90
18948;DHT22;9607;51.600;7.558;2023-04-01T13:10:10;11.40;99.90
18948;DHT22;9607;51.600;7.558;2023-04-01T13:13:04;11.40;99.90
18948;DHT22;9607;51.600;7.558;2023-04-01T13:15:38;11.40;99.90
18948;DHT22;9607;51.600;7.558;2023-04-01T13:18:17;11.30;99.90
18948;DHT22;9607;51.600;7.558;2023-04-01T13:20:51;11.20;99.90
18948;DHT22;9607;51.600;7.558;2023-04-01T13:23:33;11.30;99.90
18948;DHT22;9607;51.600;7.558;2023-04-01T13:26:09;11.20;99.90
18948;DHT22;9607;51.600;7.558;2023-04-01T13:28:43;11.30;99.90
18948;DHT22;9607;51.600;7.558;2023-04-01T13:31:30;11.40;99.90
18948;DHT22;9607;51.600;7.558;2023-04-01T13:34:07;11.50;99.90
18948;DHT22;9607;51.600;7.558;2023-04-01T13:36:53;11.40;99.90
18948;DHT22;9607;51.600;7.558;2023-04-01T13:39:30;11.40;99.90
18948;DHT22;9607;51.600;7.558;2023-04-01T13:42:11;11.50;99.90
18948;DHT22;9607;51.600;7.558;2023-04-01T13:44:44;11.50;99.90
18948;DHT22;9607;51.600;7.558;2023-04-01T13:47:27;11.50;99.90
18948;DHT22;9607;51.600;7.558;2023-04-01T13:50:26;11.40;99.90
18948;DHT22;9607;51.600;7.558;2023-04-01T13:53:19;11.40;99.90
18948;DHT22;9607;51.600;7.558;2023-04-01T13:55:57;11.30;99.90
18948;DHT22;9607;51.600;7.558;2023-04-01T13:58:38;11.30;99.90
18948;DHT22;9607;51.600;7.558;2023-04-01T14:01:10;11.40;99.90
18948;DHT22;9607;51.600;7.558;2023-04-01T14:06:46;11.50;99.90
18948;DHT22;9607;51.600;7.558;2023-04-01T14:09:29;11.50;99.90
18948;DHT22;9607;51.600;7.558;2023-04-01T14:12:06;11.50;99.90
18948;DHT22;9607;51.600;7.558;2023-04-01T14:14:48;11.40;99.90
18948;DHT22;9607;51.600;7.558;2023-04-01T14:20:29;11.30;99.90
18948;DHT22;9607;51.600;7.558;2023-04-01T14:23:18;11.20;99.90
18948;DHT22;9607;51.600;7.558;2023-04-01T14:26:07;11.10;99.90
18948;DHT22;9607;51.600;7.558;2023-04-01T14:28:42;11.10;99.90
18948;DHT22;9607;51.600;7.558;2023-04-01T14:31:24;11.10;99.90
18948;DHT22;9607;51.600;7.558;2023-04-01T14:34:00;11.10;99.90
18948;DHT22;9607;51.600;7.558;2023-04-01T14:36:51;11.10;99.90
18948;DHT22;9607;51.600;7.558;2023-04-01T14:39:34;11.10;99.90
18948;DHT22;9607;51.600;7.558;2023-04-01T14:42:18;11.10;99.90
18948;DHT22;9607;51.600;7.558;2023-04-01T14:45:02;11.10;99.90
18948;DHT22;9607;51.600;7.558;2023-04-01T14:47:46;11.00;99.90
18948;DHT22;9607;51.600;7.558;2023-04-01T14:50:16;11.00;99.90
18948;DHT22;9607;51.600;7.558;2023-04-01T14:52:49;10.90;99.90
18948;DHT22;9607;51.600;7.558;2023-04-01T14:55:28;10.90;99.90
18948;DHT22;9607;51.600;7.558;2023-04-01T14:58:09;10.90;99.90
18948;DHT22;9607;51.600;7.558;2023-04-01T15:00:50;10.80;99.90
18948;DHT22;9607;51.600;7.558;2023-04-01T15:03:26;10.80;99.90
18948;DHT22;9607;51.600;7.558;2023-04-01T15:06:10;10.70;99.90
18948;DHT22;9607;51.600;7.558;2023-04-01T15:08:46;10.70;99.90
18948;DHT22;9607;51.600;7.558;2023-04-01T15:11:34;10.70;99.90
18948;DHT22;9607;51.600;7.558;2023-04-01T15:17:05;10.70;99.90
18948;DHT22;9607;51.600;7.558;2023-04-01T15:19:55;10.70;99.90
18948;DHT22;9607;51.600;7.558;2023-04-01T15:22:37;10.70;99.90
18948;DHT22;9607;51.600;7.558;2023-04-01T15:25:19;10.70;99.90
18948;DHT22;9607;51.600;7.558;2023-04-01T15:27:51;10.80;99.90
18948;DHT22;9607;51.600;7.558;2023-04-01T15:30:27;10.80;99.90
18948;DHT22;9607;51.600;7.558;2023-04-01T15:33:13;10.80;99.90
18948;DHT22;9607;51.600;7.558;2023-04-01T15:35:51;10.80;99.90
18948;DHT22;9607;51.600;7.558;2023-04-01T15:38:27;10.90;99.90
18948;DHT22;9607;51.600;7.558;2023-04-01T15:41:03;10.90;99.90
18948;DHT22;9607;51.600;7.558;2023-04-01T15:43:41;10.90;99.90
18948;DHT22;9607;51.600;7.558;2023-04-01T15:46:19;10.90;99.90
18948;DHT22;9607;51.600;7.558;2023-04-01T15:49:01;10.90;99.90
18948;DHT22;9607;51.600;7.558;2023-04-01T15:51:54;10.80;99.90
18948;DHT22;9607;51.600;7.558;2023-04-01T15:54:48;10.90;99.90
18948;DHT22;9607;51.600;7.558;2023-04-01T15:57:28;10.80;99.90
18948;DHT22;9607;51.600;7.558;2023-04-01T16:00:09;10.80;99.90
18948;DHT22;9607;51.600;7.558;2023-04-01T16:02:44;10.80;99.90
18948;DHT22;9607;51.600;7.558;2023-04-01T16:05:27;10.80;99.90
18948;DHT22;9607;51.600;7.558;2023-04-01T16:08:10;10.80;99.90
18948;DHT22;9607;51.600;7.558;2023-04-01T16:10:58;10.80;99.90
18948;DHT22;9607;51.600;7.558;2023-04-01T16:13:37;10.80;99.90
18948;DHT22;9607;51.600;7.558;2023-04-01T16:16:17;10.80;99.90
18948;DHT22;9607;51.600;7.558;2023-04-01T16:19:15;10.80;99.90
18948;DHT22;9607;51.600;7.558;2023-04-01T16:21:49;10.80;99.90
18948;DHT22;9607;51.600;7.558;2023-04-01T16:24:23;10.80;99.90
18948;DHT22;9607;51.600;7.558;2023-04-01T16:27:00;10.80;99.90
18948;DHT22;9607;51.600;7.558;2023-04-01T16:29:35;10.80;99.90
18948;DHT22;9607;51.600;7.558;2023-04-01T16:32:31;10.90;99.90
18948;DHT22;9607;51.600;7.558;2023-04-01T16:35:23;10.90;99.90
18948;DHT22;9607;51.600;7.558;2023-04-01T16:37:55;10.90;99.90
18948;DHT22;9607;51.600;7.558;2023-04-01T16:40:41;10.90;99.90
18948;DHT22;9607;51.600;7.558;2023-04-01T16:43:19;10.90;99.90
18948;DHT22;9607;51.600;7.558;2023-04-01T16:45:56;10.90;99.90
18948;DHT22;9607;51.600;7.558;2023-04-01T16:48:29;10.90;99.90
18948;DHT22;9607;51.600;7.558;2023-04-01T16:51:04;10.90;99.90
18948;DHT22;9607;51.600;7.558;2023-04-01T16:53:41;10.90;99.90
18948;DHT22;9607;51.600;7.558;2023-04-01T16:56:14;10.80;99.90
18948;DHT22;9607;51.600;7.558;2023-04-01T16:58:55;10.80;99.90
18948;DHT22;9607;51.600;7.558;2023-04-01T17:01:26;10.80;99.90
18948;DHT22;9607;51.600;7.558;2023-04-01T17:04:00;10.80;99.90
18948;DHT22;9607;51.600;7.558;2023-04-01T17:06:34;10.80;99.90
18948;DHT22;9607;51.600;7.558;2023-04-01T17:09:23;10.80;99.90
18948;DHT22;9607;51.600;7.558;2023-04-01T17:11:57;10.80;99.90
18948;DHT22;9607;51.600;7.558;2023-04-01T17:14:30;10.80;99.90
18948;DHT22;9607;51.600;7.558;2023-04-01T17:17:19;10.80;99.90
18948;DHT22;9607;51.600;7.558;2023-04-01T17:20:17;10.70;99.90
18948;DHT22;9607;51.600;7.558;2023-04-01T17:22:50;10.80;99.90
18948;DHT22;9607;51.600;7.558;2023-04-01T17:25:35;10.80;99.90
18948;DHT22;9607;51.600;7.558;2023-04-01T17:28:14;10.80;99.90
18948;DHT22;9607;51.600;7.558;2023-04-01T17:30:49;10.80;99.90
18948;DHT22;9607;51.600;7.558;2023-04-01T17:33:43;10.80;99.90
18948;DHT22;9607;51.600;7.558;2023-04-01T17:36:20;10.80;99.90
18948;DHT22;9607;51.600;7.558;2023-04-01T17:39:07;10.80;99.90
18948;DHT22;9607;51.600;7.558;2023-04-01T17:41:46;10.80;99.90
18948;DHT22;9607;51.600;7.558;2023-04-01T17:44:28;10.80;99.90
18948;DHT22;9607;51.600;7.558;2023-04-01T17:47:18;10.80;99.90
18948;DHT22;9607;51.600;7.558;2023-04-01T17:49:54;10.80;99.90
18948;DHT22;9607;51.600;7.558;2023-04-01T17:52:29;10.70;99.90